Latest Weather Observations for Kowanyama

IDQ60801

Issued at 3:35 pm EST Thursday 23 October 2014 (issued every 30 minutes, with the page automatically refreshed every 10 minutes)

About weather observations | Map of weather stations | Latest weather observations for QLD | Other Formats
Station Details ID: 029038 Name: KOWANYAMA AIRPORT Lat: -15.48 Lon: 141.75 Height: 9.6 m
Data from the previous 72 hours. | See also: Recent months at Kowanyama
Date/Time
EST
Temp
°C
App
Temp
°C
Dew
Point
Rel
Hum
%
Delta-T
°C
Wind Press
QNH
hPa
Press
MSL
hPa
Rain
since 9 am
mm
Dir
 
Spd
km/h
Gust
km/h
Spd
kts
Gust
kts
23/03:30pm 34.9 31.2 4.4 15 16.2 SSE 13 22 7 12 1010.3 1010.2 0.0
23/03:00pm 34.7 30.4 5.2 16 15.8 ENE 17 26 9 14 1010.5 1010.4 0.0
23/02:30pm 34.4 30.8 6.7 18 15.2 ESE 15 24 8 13 1010.9 1010.8 0.0
23/02:00pm 34.4 30.2 8.2 20 14.7 ESE 20 32 11 17 1011.4 1011.3 0.0
23/01:30pm 33.5 29.3 7.5 20 14.4 ESE 19 32 10 17 1011.9 1011.8 0.0
23/01:00pm 33.9 30.1 9.9 23 13.8 ESE 20 26 11 14 1012.7 1012.6 0.0
23/12:30pm 32.4 28.8 10.4 26 12.7 ESE 20 37 11 20 1013.3 1013.2 0.0
23/12:00pm 31.7 30.2 12.0 30 11.6 E 11 19 6 10 1014.1 1014.0 0.0
23/11:30am 31.0 28.7 11.9 31 11.2 ENE 15 22 8 12 1014.8 1014.7 0.0
23/11:00am 30.4 27.6 13.2 35 10.2 E 20 26 11 14 1015.2 1015.1 0.0
23/10:30am 28.8 26.0 13.1 38 9.3 E 20 30 11 16 1015.6 1015.5 0.0
23/10:00am 28.4 26.9 14.3 42 8.5 E 15 22 8 12 1016.0 1015.9 0.0
23/09:30am 27.9 26.0 14.2 43 8.2 E 17 30 9 16 1016.4 1016.3 0.0
23/09:00am 27.2 24.7 14.2 44 7.8 E 20 30 11 16 1016.5 1016.4 0.0
23/08:30am 26.0 24.1 14.1 47 7.1 E 17 28 9 15 1016.6 1016.5 0.0
23/08:00am 25.3 23.5 14.4 50 6.5 E 17 26 9 14 1016.4 1016.3 0.0
23/07:30am 24.4 23.3 14.2 53 6.0 ENE 13 24 7 13 1016.4 1016.3 0.0
23/07:00am 23.6 22.9 14.3 56 5.5 E 11 19 6 10 1016.3 1016.2 0.0
23/06:30am 22.8 22.1 14.4 59 4.9 ENE 11 17 6 9 1015.8 1015.7 0.0
23/06:00am 22.5 22.1 14.1 59 4.9 ENE 9 13 5 7 1015.6 1015.5 0.0
23/05:30am 22.8 22.0 14.1 58 5.1 ENE 11 17 6 9 1015.3 1015.2 0.0
23/05:00am 23.0 22.2 14.0 57 5.3 ENE 11 19 6 10 1015.0 1014.9 0.0
23/04:30am 23.4 22.1 13.8 54 5.6 E 13 20 7 11 1014.8 1014.7 0.0
23/04:00am 23.6 22.7 13.8 54 5.7 E 11 17 6 9 1014.8 1014.7 0.0
23/03:30am 24.0 23.5 13.8 53 6.0 E 9 17 5 9 1014.8 1014.7 0.0
23/03:00am 24.5 22.8 13.7 51 6.3 ENE 15 26 8 14 1014.8 1014.7 0.0
23/02:30am 25.3 24.2 14.4 50 6.5 ENE 13 20 7 11 1014.7 1014.6 0.0
23/02:00am 25.8 24.9 14.9 51 6.5 ENE 13 26 7 14 1014.9 1014.8 0.0
23/01:30am 25.8 25.4 15.2 52 6.4 ENE 11 19 6 10 1015.0 1014.9 0.0
23/01:00am 26.3 25.6 15.4 51 6.6 NE 13 24 7 13 1015.2 1015.1 0.0
23/12:30am 26.5 26.0 15.8 51 6.5 ENE 13 20 7 11 1015.5 1015.4 0.0
23/12:00am 25.6 27.2 17.0 59 5.3 NNE 4 13 2 7 1015.3 1015.2 0.0
 
Date/Time
EST
Temp
°C
App
Temp
°C
Dew
Point
Rel
Hum
%
Delta-T
°C
Wind Press
QNH
hPa
Press
MSL
hPa
Rain
since 9 am
mm
Dir
 
Spd
km/h
Gust
km/h
Spd
kts
Gust
kts
22/11:30pm 25.8 27.2 17.4 59 5.2 ENE 6 9 3 5 1015.7 1015.6 0.0
22/11:00pm 26.0 27.6 18.2 62 4.9 ENE 7 11 4 6 1015.5 1015.4 0.0
22/10:30pm 25.9 26.6 18.8 65 4.5 ENE 13 22 7 12 1015.0 1014.9 0.0
22/10:00pm 25.3 26.9 19.2 69 3.9 SSW 9 11 5 6 1014.0 1013.9 0.0
22/09:30pm 25.5 27.1 19.2 68 4.0 SSW 9 13 5 7 1013.8 1013.7 0.0
22/09:00pm 25.5 27.3 18.7 66 4.3 WSW 7 9 4 5 1013.5 1013.4 0.0
22/08:30pm 25.9 27.8 18.6 64 4.6 W 6 7 3 4 1013.4 1013.3 0.0
22/08:00pm 26.3 27.4 17.9 60 5.3 WSW 9 13 5 7 1013.1 1013.0 0.0
22/07:30pm 26.9 27.1 17.7 57 5.8 WSW 13 17 7 9 1012.8 1012.7 0.0
22/07:00pm 27.6 27.2 17.2 53 6.5 WSW 15 22 8 12 1012.6 1012.5 0.0
22/06:30pm 28.7 27.4 16.9 48 7.4 WSW 19 24 10 13 1012.3 1012.2 0.0
22/06:00pm 30.1 28.8 16.9 45 8.3 WSW 19 26 10 14 1011.9 1011.8 0.0
22/05:30pm 31.1 29.4 16.3 41 9.3 W 20 28 11 15 1011.6 1011.5 0.0
22/05:00pm 32.1 30.5 16.4 39 9.9 WSW 20 30 11 16 1011.0 1010.9 0.0
22/04:30pm 33.2 32.6 15.7 35 10.9 WSW 13 26 7 14 1011.1 1011.0 0.0
22/04:00pm 35.4 31.8 9.7 21 14.8 SE 19 26 10 14 1011.0 1010.9 0.0
22/03:30pm 34.7 32.1 9.2 21 14.5 SE 13 19 7 10 1011.2 1011.1 0.0
22/03:00pm 34.6 31.9 10.4 23 14.1 E 15 24 8 13 1011.5 1011.4 0.0
22/02:30pm 34.4 31.1 10.9 24 13.7 ESE 19 28 10 15 1011.9 1011.8 0.0
22/02:00pm 34.4 30.9 10.9 24 13.7 S 20 26 11 14 1012.3 1012.2 0.0
22/01:30pm 33.7 30.4 10.9 25 13.3 SSE 19 33 10 18 1013.0 1012.9 0.0
22/01:00pm 33.4 31.3 11.3 26 12.9 S 13 19 7 10 1013.6 1013.5 0.0
22/12:30pm 32.2 30.1 12.4 30 11.7 SE 15 35 8 19 1014.2 1014.1 0.0
22/12:00pm 31.6 30.0 12.9 32 11.1 ESE 13 22 7 12 1014.9 1014.8 0.0
22/11:30am 31.2 29.6 13.9 35 10.5 ESE 15 24 8 13 1015.3 1015.2 0.0
22/11:00am 31.0 29.8 15.0 38 9.8 E 15 22 8 12 1015.8 1015.7 0.0
22/10:30am 29.2 27.6 15.0 42 8.7 ESE 17 26 9 14 1016.1 1016.0 0.0
22/10:00am 28.6 27.3 15.8 45 7.9 E 17 24 9 13 1016.5 1016.4 0.0
22/09:30am 28.2 27.0 16.1 47 7.5 E 17 26 9 14 1016.7 1016.6 0.0
22/09:00am 27.2 25.5 16.2 51 6.8 E 20 30 11 16 1016.9 1016.8 0.0
22/08:30am 26.6 25.2 16.5 54 6.2 E 19 30 10 16 1016.9 1016.8 0.0
22/08:00am 25.8 24.4 16.6 56 5.7 E 19 32 10 17 1016.9 1016.8 0.0
22/07:30am 24.7 23.7 16.7 61 4.9 E 17 32 9 17 1016.7 1016.6 0.0
22/07:00am 23.9 23.7 16.7 64 4.4 E 13 22 7 12 1016.3 1016.2 0.0
22/06:30am 22.5 23.3 16.3 68 3.8 E 7 17 4 9 1016.1 1016.0 0.0
22/06:00am 22.3 22.9 15.9 67 3.8 ENE 7 11 4 6 1015.8 1015.7 0.0
22/05:30am 22.7 23.4 16.0 66 4.0 E 7 11 4 6 1015.6 1015.5 0.0
22/05:00am 23.1 23.4 15.9 64 4.3 E 9 13 5 7 1015.3 1015.2 0.0
22/04:30am 23.6 23.9 15.9 62 4.7 E 9 15 5 8 1015.0 1014.9 0.0
22/04:00am 23.9 24.1 15.7 60 4.9 E 9 15 5 8 1014.8 1014.7 0.0
22/03:30am 24.2 24.3 15.4 58 5.3 ENE 9 17 5 9 1014.8 1014.7 0.0
22/03:00am 24.6 24.6 15.2 55 5.6 ENE 9 15 5 8 1014.6 1014.5 0.0
22/02:30am 25.2 24.4 15.2 54 6.0 ENE 13 24 7 13 1014.6 1014.5 0.0
22/02:00am 25.2 24.5 15.5 55 5.9 ENE 13 19 7 10 1014.7 1014.6 0.0
22/01:30am 23.8 25.1 17.1 66 4.1 NE 6 9 3 5 1014.8 1014.7 0.0
22/01:00am 23.3 25.1 17.5 70 3.6 NNE 4 7 2 4 1014.9 1014.8 0.0
22/12:30am 23.4 25.1 18.1 72 3.3 ENE 6 7 3 4 1015.3 1015.2 0.0
22/12:00am 24.1 25.8 18.1 69 3.8 E 6 7 3 4 1015.5 1015.4 0.0
 
Date/Time
EST
Temp
°C
App
Temp
°C
Dew
Point
Rel
Hum
%
Delta-T
°C
Wind Press
QNH
hPa
Press
MSL
hPa
Rain
since 9 am
mm
Dir
 
Spd
km/h
Gust
km/h
Spd
kts
Gust
kts
21/11:30pm 24.6 26.2 18.3 68 4.0 E 7 11 4 6 1015.8 1015.7 0.0
21/11:00pm 24.8 25.6 19.0 70 3.7 E 13 20 7 11 1015.7 1015.6 0.0
21/10:30pm 23.6 25.5 18.5 73 3.2 SSW 6 7 3 4 1014.7 1014.6 0.0
21/10:00pm 24.5 26.5 18.7 70 3.7 SW 6 7 3 4 1014.9 1014.8 0.0
21/09:30pm 24.7 27.3 18.4 68 4.0 SSW 2 7 1 4 1014.8 1014.7 0.0
21/09:00pm 25.1 27.0 18.5 67 4.2 WSW 6 7 3 4 1014.5 1014.4 0.0
21/08:30pm 25.6 27.3 18.5 65 4.5 WSW 7 11 4 6 1014.2 1014.1 0.0
21/08:00pm 26.1 26.9 18.2 61 5.0 SW 11 19 6 10 1014.0 1013.9 0.0
21/07:30pm 26.7 26.7 18.0 59 5.5 SW 15 24 8 13 1013.6 1013.5 0.0
21/07:00pm 27.4 26.3 17.3 54 6.3 SW 19 24 10 13 1013.3 1013.2 0.0
21/06:30pm 28.3 26.9 16.6 49 7.3 WSW 19 26 10 14 1013.0 1012.9 0.0
21/06:00pm 29.8 28.6 16.2 43 8.5 WSW 17 28 9 15 1012.7 1012.6 0.0
21/05:30pm 31.2 28.5 15.6 39 9.7 WSW 24 32 13 17 1012.3 1012.2 0.0
21/05:00pm 34.8 32.2 6.2 17 15.6 SE 9 17 5 9 1011.9 1011.8 0.0
21/04:30pm 34.9 30.6 5.4 16 15.9 SE 17 20 9 11 1011.6 1011.5 0.0
21/04:00pm 35.1 32.4 5.5 16 16.0 E 9 20 5 11 1011.6 1011.5 0.0
21/03:30pm 34.6 30.8 6.0 17 15.5 SE 15 30 8 16 1011.9 1011.8 0.0
21/03:00pm 36.2 31.8 6.4 16 16.4 SE 19 26 10 14 1012.1 1012.0 0.0
21/02:30pm 35.1 31.8 8.0 19 15.2 SSW 15 20 8 11 1012.5 1012.4 0.0
21/02:00pm 34.8 32.0 8.5 20 14.9 S 13 22 7 12 1012.8 1012.7 0.0
21/01:30pm 33.7 30.6 9.0 22 14.0 SSE 15 28 8 15 1013.5 1013.4 0.0
21/01:00pm 33.8 30.6 8.4 21 14.2 ESE 15 30 8 16 1014.0 1013.9 0.0
21/12:30pm 32.9 29.6 9.7 24 13.2 SSE 17 28 9 15 1014.6 1014.5 0.0
21/12:00pm 32.3 29.9 11.5 28 12.2 ESE 15 33 8 18 1015.3 1015.2 0.0
21/11:30am 31.9 30.7 12.7 31 11.4 E 11 19 6 10 1015.6 1015.5 0.0
21/11:00am 31.2 29.4 12.1 31 11.2 E 13 24 7 13 1015.9 1015.8 0.0
21/10:30am 30.2 27.4 12.6 34 10.4 ESE 19 30 10 16 1016.3 1016.2 0.0
21/10:00am 28.7 26.0 13.4 39 9.1 ESE 20 32 11 17 1016.8 1016.7 0.0
21/09:30am 27.9 25.7 14.5 44 8.1 E 19 30 10 16 1017.0 1016.9 0.0
21/09:00am 27.3 25.3 15.0 47 7.4 E 19 30 10 16 1017.0 1016.9 0.0
21/08:30am 26.4 24.8 15.1 49 6.8 ESE 17 24 9 13 1017.0 1016.9 0.0
21/08:00am 25.6 24.6 15.6 54 6.1 E 15 22 8 12 1016.9 1016.8 0.0
21/07:30am 24.6 23.2 15.5 57 5.5 E 17 28 9 15 1016.7 1016.6 0.0
21/07:00am 23.9 24.0 15.4 59 5.1 E 9 15 5 8 1016.4 1016.3 0.0
21/06:30am 23.2 23.3 15.5 62 4.6 E 9 13 5 7 1016.3 1016.2 0.0
21/06:00am 23.2 23.3 15.5 62 4.6 E 9 15 5 8 1016.1 1016.0 0.0
21/05:30am 23.5 24.0 15.5 60 4.8 E 7 11 4 6 1015.9 1015.8 0.0
21/05:00am 23.8 23.8 15.3 59 5.1 E 9 15 5 8 1015.7 1015.6 0.0
21/04:30am 24.1 24.1 15.3 58 5.3 ENE 9 15 5 8 1015.4 1015.3 0.0
21/04:00am 24.4 24.7 15.9 59 5.2 ENE 9 15 5 8 1015.1 1015.0 0.0
21/03:30am 24.7 25.1 16.4 60 5.1 ENE 9 15 5 8 1015.0 1014.9 0.0
21/03:00am 24.8 25.5 16.2 58 5.3 E 7 11 4 6 1015.0 1014.9 0.0
21/02:30am 25.3 25.7 16.2 57 5.6 ENE 9 15 5 8 1015.0 1014.9 0.0
21/02:00am 25.9 25.5 16.2 55 5.9 ENE 13 20 7 11 1015.0 1014.9 0.0
21/01:30am 26.2 26.3 16.4 54 6.0 E 11 20 6 11 1015.1 1015.0 0.0
21/01:00am 25.4 26.6 17.3 61 5.0 E 7 11 4 6 1015.2 1015.1 0.0
21/12:30am 25.4 27.9 18.1 64 4.6 NE 2 7 1 4 1015.2 1015.1 0.0
21/12:00am 25.6 27.4 18.3 64 4.6 N 6 7 3 4 1015.2 1015.1 0.0
 
Date/Time
EST
Temp
°C
App
Temp
°C
Dew
Point
Rel
Hum
%
Delta-T
°C
Wind Press
QNH
hPa
Press
MSL
hPa
Rain
since 9 am
mm
Dir
 
Spd
km/h
Gust
km/h
Spd
kts
Gust
kts
20/11:30pm 25.7 27.6 18.9 66 4.3 NE 7 9 4 5 1015.4 1015.3 0.0
20/11:00pm 24.6 26.6 19.2 72 3.5 ENE 7 9 4 5 1015.2 1015.1 0.0
20/10:30pm 25.1 27.1 19.2 70 3.8 E 7 13 4 7 1015.0 1014.9 0.0
20/10:00pm 24.9 26.4 19.0 69 3.8 NE 9 13 5 7 1014.3 1014.2 0.0
20/09:30pm 25.4 28.3 19.1 68 4.0 S 2 9 1 5 1013.4 1013.3 0.0
20/09:00pm 25.7 27.7 19.1 67 4.2 SW 7 11 4 6 1013.2 1013.1 0.0
20/08:30pm 26.1 27.6 18.8 64 4.7 SSW 9 13 5 7 1013.1 1013.0 0.0
20/08:00pm 26.4 27.0 18.5 62 5.0 SSW 13 17 7 9 1012.7 1012.6 0.0
20/07:30pm 27.0 27.2 18.6 60 5.4 SW 15 22 8 12 1012.5 1012.4 0.0
20/07:00pm 27.5 27.0 17.9 55 6.1 SW 17 24 9 13 1012.3 1012.2 0.0
20/06:30pm 28.5 26.6 16.7 48 7.4 SW 22 30 12 16 1011.9 1011.8 0.0
20/06:00pm 29.8 28.2 16.6 45 8.3 SW 20 30 11 16 1011.5 1011.4 0.0
20/05:30pm 31.1 29.4 16.3 41 9.3 WSW 20 30 11 16 1011.1 1011.0 0.0
20/05:00pm 32.4 30.1 15.8 36 10.4 W 22 30 12 16 1010.5 1010.4 0.0
20/04:30pm 35.2 32.9 8.9 20 15.0 SW 11 15 6 8 1010.4 1010.3 0.0
20/04:00pm 35.3 33.9 9.7 21 14.8 NE 7 13 4 7 1010.6 1010.5 0.0

Other Formats:

Comma delimited format used in spreadsheet applications
http://www.bom.gov.au/fwo/IDQ60801/IDQ60801.94268.axf

JavaScript Object Notation format (JSON) in row-major order
http://www.bom.gov.au/fwo/IDQ60801/IDQ60801.94268.json